Time;durP1;ratioP1;P1;durP2;ratioP2;P2;SDS_P1;SDS_P2;PMS_P1;PMS_P2;Temp;Humidity;BMP_temperature;BMP_pressure;BME280_temperature;BME280_humidity;BME280_pressure;Samples;Min_cycle;Max_cycle;Signal;HPM_P1;HPM_P2
2023/01/12 00:02:19;;;;;;;10.93;7.40;;;7.80;99.90;;;;;;4972141;28;20466;-52
2023/01/12 00:04:46;;;;;;;12.83;7.17;;;7.70;99.90;;;;;;4971815;28;20418;-52
2023/01/12 00:07:14;;;;;;;12.53;7.17;;;7.40;99.90;;;;;;4971576;28;20432;-52
2023/01/12 00:09:41;;;;;;;12.00;7.93;;;7.80;99.90;;;;;;4971339;28;20459;-52
2023/01/12 00:12:11;;;;;;;14.90;7.53;;;7.30;99.90;;;;;;4971536;28;20773;-52
2023/01/12 00:14:39;;;;;;;14.43;7.17;;;7.70;99.90;;;;;;4971252;28;20480;-51
2023/01/12 00:17:06;;;;;;;15.90;6.77;;;7.50;99.90;;;;;;4971371;28;20440;-53
2023/01/12 00:19:35;;;;;;;15.57;7.60;;;7.60;99.90;;;;;;4971019;28;20411;-52
2023/01/12 00:22:08;;;;;;;10.73;6.60;;;7.80;99.90;;;;;;4971300;28;20431;-52
2023/01/12 00:24:36;;;;;;;12.87;7.20;;;7.60;99.90;;;;;;5037930;28;20428;-52
2023/01/12 00:27:04;;;;;;;17.60;7.50;;;7.50;99.90;;;;;;4971320;28;20413;-52
2023/01/12 00:29:31;;;;;;;14.70;7.67;;;7.50;99.90;;;;;;5037425;28;20791;-52
2023/01/12 00:31:59;;;;;;;11.37;6.97;;;7.00;99.90;;;;;;5037698;28;20453;-51
2023/01/12 00:34:26;;;;;;;14.20;6.70;;;7.50;99.90;;;;;;4971038;28;20459;-51
2023/01/12 00:36:55;;;;;;;12.50;6.53;;;8.00;99.90;;;;;;4971311;28;20412;-52
2023/01/12 00:39:22;;;;;;;11.60;5.93;;;7.40;99.90;;;;;;4971181;28;20415;-52
2023/01/12 00:47:25;;;;;;;12.10;6.63;;;7.60;99.90;;;;;;4982740;28;20415;-51
2023/01/12 00:49:52;;;;;;;12.43;7.10;;;6.90;99.90;;;;;;4970784;28;20645;-52
2023/01/12 00:52:21;;;;;;;10.07;5.93;;;7.60;99.90;;;;;;4971078;28;20860;-52
2023/01/12 00:54:48;;;;;;;10.47;5.57;;;7.50;99.90;;;;;;4970662;28;20481;-52
2023/01/12 00:57:16;;;;;;;10.97;5.50;;;7.20;99.90;;;;;;4970800;28;20483;-51
2023/01/12 00:59:43;;;;;;;10.77;5.70;;;7.30;99.90;;;;;;4970398;28;20971;-52
2023/01/12 01:02:10;;;;;;;7.00;4.53;;;7.50;99.90;;;;;;4970681;28;20513;-52
2023/01/12 01:04:37;;;;;;;12.63;6.60;;;7.50;99.90;;;;;;4970614;28;20788;-51
2023/01/12 01:07:04;;;;;;;12.47;5.77;;;7.20;99.90;;;;;;4970570;28;20411;-52
2023/01/12 01:09:32;;;;;;;9.73;5.40;;;7.20;99.90;;;;;;4970349;28;20835;-51
2023/01/12 01:11:58;;;;;;;15.73;6.60;;;7.20;99.90;;;;;;5037015;28;20427;-51
2023/01/12 01:14:25;;;;;;;7.83;4.40;;;7.70;99.90;;;;;;4970813;28;20470;-52
2023/01/12 01:16:52;;;;;;;13.33;4.93;;;7.30;99.90;;;;;;4970655;28;20893;-51
2023/01/12 01:19:19;;;;;;;13.60;4.80;;;6.70;99.90;;;;;;4970176;28;20418;-51
2023/01/12 01:21:45;;;;;;;14.20;5.10;;;6.70;99.90;;;;;;4970333;28;20437;-52
2023/01/12 01:24:13;;;;;;;9.93;4.30;;;7.30;99.90;;;;;;4970549;28;20441;-52
2023/01/12 01:26:42;;;;;;;13.27;4.43;;;7.30;99.90;;;;;;4970702;28;20441;-52
2023/01/12 01:29:09;;;;;;;9.77;4.40;;;6.50;99.90;;;;;;4970177;28;20427;-52
2023/01/12 01:31:36;;;;;;;10.37;4.77;;;7.40;99.90;;;;;;4970331;28;20406;-52
2023/01/12 01:34:03;;;;;;;12.10;5.30;;;7.50;99.90;;;;;;4970355;28;20459;-51
2023/01/12 01:36:30;;;;;;;13.20;3.80;;;7.10;99.90;;;;;;4970245;28;20436;-51
2023/01/12 01:38:56;;;;;;;14.47;4.07;;;7.50;99.90;;;;;;4970021;28;20449;-51
2023/01/12 01:41:24;;;;;;;9.50;4.27;;;7.00;99.90;;;;;;4970252;28;20414;-52
2023/01/12 01:43:56;;;;;;;14.13;4.73;;;7.30;99.90;;;;;;4970083;28;20485;-51
2023/01/12 01:46:44;;;;;;;11.03;3.93;;;7.30;99.90;;;;;;4970179;28;20421;-52
2023/01/12 01:49:23;;;;;;;8.43;4.00;;;7.10;99.90;;;;;;4969714;28;20906;-51
2023/01/12 01:51:53;;;;;;;10.60;3.53;;;7.40;99.90;;;;;;4969919;28;20922;-52
2023/01/12 01:54:20;;;;;;;7.47;3.37;;;7.40;99.90;;;;;;4971428;28;20868;-52
2023/01/12 01:56:47;;;;;;;9.43;3.03;;;7.40;99.90;;;;;;4973506;28;20923;-53
2023/01/12 01:59:18;;;;;;;7.90;3.43;;;6.90;99.90;;;;;;4973550;28;20441;-52
2023/01/12 02:01:46;;;;;;;13.10;4.20;;;7.50;99.90;;;;;;4973167;28;20450;-52
2023/01/12 02:04:14;;;;;;;10.80;3.63;;;7.70;99.90;;;;;;5040273;28;20452;-51
2023/01/12 02:06:41;;;;;;;8.03;3.00;;;7.60;99.90;;;;;;4973288;28;20414;-52
2023/01/12 02:09:12;;;;;;;13.93;4.00;;;7.50;99.90;;;;;;4973080;28;20626;-51
2023/01/12 02:17:30;;;;;;;17.20;3.43;;;7.20;99.90;;;;;;4973224;28;20418;-51
2023/01/12 02:20:20;;;;;;;9.00;3.23;;;7.90;99.90;;;;;;4972795;28;20416;-51
2023/01/12 02:23:27;;;;;;;7.93;2.70;;;7.60;99.90;;;;;;4973297;28;20468;-51
2023/01/12 02:26:13;;;;;;;8.33;3.33;;;7.70;99.90;;;;;;4973777;28;20430;-52
2023/01/12 02:29:08;;;;;;;11.53;2.53;;;7.80;99.90;;;;;;4972804;28;20420;-51
2023/01/12 02:31:47;;;;;;;8.27;2.90;;;7.70;99.90;;;;;;4973236;28;20429;-52
2023/01/12 02:34:24;;;;;;;7.70;2.37;;;7.80;99.90;;;;;;4972823;28;20484;-52
2023/01/12 02:36:57;;;;;;;11.93;3.07;;;8.00;99.90;;;;;;4972962;28;20433;-52
2023/01/12 02:39:28;;;;;;;9.87;2.93;;;7.90;99.90;;;;;;4973119;28;20491;-52
2023/01/12 02:44:55;;;;;;;11.87;3.20;;;7.80;99.90;;;;;;4973340;28;20651;-52
2023/01/12 02:47:29;;;;;;;12.90;3.50;;;8.00;99.90;;;;;;4973074;28;20441;-51
2023/01/12 02:49:59;;;;;;;13.37;3.87;;;8.00;99.90;;;;;;4972394;28;20510;-52
2023/01/12 02:52:30;;;;;;;9.33;3.10;;;7.50;99.90;;;;;;4972574;28;20461;-52
2023/01/12 02:54:58;;;;;;;5.73;2.67;;;8.00;99.90;;;;;;4972581;28;20816;-52
2023/01/12 02:57:26;;;;;;;11.13;2.83;;;7.80;99.90;;;;;;4972486;28;20411;-52
2023/01/12 02:59:55;;;;;;;10.77;3.30;;;7.70;99.90;;;;;;4972151;28;20749;-52
2023/01/12 03:02:24;;;;;;;15.30;4.60;;;7.90;99.90;;;;;;4972487;28;20463;-51
2023/01/12 03:04:52;;;;;;;8.07;2.80;;;7.70;99.90;;;;;;4972625;28;20804;-53
2023/01/12 03:07:34;;;;;;;5.20;2.20;;;8.40;99.90;;;;;;4971887;28;21091;-52
2023/01/12 03:10:17;;;;;;;16.17;4.60;;;8.10;99.90;;;;;;4972178;28;20513;-52
2023/01/12 03:12:45;;;;;;;8.63;2.60;;;8.10;99.90;;;;;;4972552;28;20429;-52
2023/01/12 03:15:14;;;;;;;10.43;3.43;;;7.80;99.90;;;;;;4972442;28;20491;-51
2023/01/12 03:17:46;;;;;;;9.10;2.97;;;8.00;99.90;;;;;;4972223;28;20412;-52
2023/01/12 03:20:18;;;;;;;11.63;2.77;;;7.70;99.90;;;;;;4971995;28;20449;-52
2023/01/12 03:22:49;;;;;;;8.13;2.47;;;7.70;99.90;;;;;;4972175;28;20433;-52
2023/01/12 03:25:17;;;;;;;8.40;2.80;;;8.00;99.90;;;;;;4972470;28;20427;-52
2023/01/12 03:27:48;;;;;;;14.90;3.40;;;8.10;99.90;;;;;;4972155;28;20405;-52
2023/01/12 03:30:18;;;;;;;8.37;4.03;;;8.00;99.90;;;;;;4971959;28;20420;-52
2023/01/12 03:32:46;;;;;;;12.60;2.50;;;7.90;99.90;;;;;;4972104;28;20940;-52
2023/01/12 03:35:13;;;;;;;9.43;2.73;;;7.80;99.90;;;;;;4972166;28;20475;-52
2023/01/12 03:37:46;;;;;;;10.87;2.90;;;8.20;99.90;;;;;;4972067;28;20412;-51
2023/01/12 03:40:18;;;;;;;7.20;2.63;;;8.00;99.90;;;;;;4971737;28;20450;-51
2023/01/12 03:42:52;;;;;;;7.60;2.50;;;8.00;99.90;;;;;;4971945;28;20941;-52
2023/01/12 03:45:28;;;;;;;10.00;2.90;;;7.90;99.90;;;;;;4972390;28;20424;-51
2023/01/12 03:48:03;;;;;;;5.60;2.13;;;7.90;99.90;;;;;;4972030;28;20495;-52
2023/01/12 03:50:38;;;;;;;5.67;1.90;;;8.10;99.90;;;;;;4971803;28;20422;-52
2023/01/12 03:53:06;;;;;;;15.57;1.90;;;8.20;99.90;;;;;;4971783;28;20509;-51
2023/01/12 03:55:36;;;;;;;7.70;2.37;;;7.80;99.90;;;;;;4971663;28;20542;-52
2023/01/12 03:58:02;;;;;;;11.70;2.83;;;8.20;99.90;;;;;;4971677;28;20410;-51
2023/01/12 04:00:30;;;;;;;11.53;3.03;;;7.70;99.90;;;;;;4971464;28;20446;-52
2023/01/12 04:03:07;;;;;;;11.03;2.90;;;8.10;99.90;;;;;;4971386;28;20440;-52
2023/01/12 04:05:34;;;;;;;8.60;2.50;;;7.70;99.90;;;;;;4971616;28;20923;-52
2023/01/12 04:08:01;;;;;;;7.07;2.93;;;8.20;99.90;;;;;;4971521;28;20427;-51
2023/01/12 04:10:27;;;;;;;12.30;3.47;;;8.10;99.90;;;;;;5037790;28;20451;-52
2023/01/12 04:12:54;;;;;;;7.43;2.30;;;7.70;99.90;;;;;;4971446;28;20466;-51
2023/01/12 04:15:20;;;;;;;10.57;3.20;;;8.10;99.90;;;;;;4971421;28;21088;-52
2023/01/12 04:17:47;;;;;;;7.47;2.70;;;8.10;99.90;;;;;;4970150;28;20417;-52
2023/01/12 04:20:16;;;;;;;9.33;2.27;;;8.80;99.90;;;;;;5037701;28;20925;-52
2023/01/12 04:22:42;;;;;;;13.00;2.50;;;8.30;99.90;;;;;;4971679;28;20461;-52
2023/01/12 04:25:10;;;;;;;10.30;2.87;;;8.20;99.90;;;;;;4971160;28;20459;-52
2023/01/12 04:27:40;;;;;;;7.57;2.70;;;8.40;99.90;;;;;;4971208;28;20422;-51
2023/01/12 04:30:08;;;;;;;15.83;3.00;;;8.10;99.90;;;;;;4971049;28;20439;-52
2023/01/12 04:32:35;;;;;;;7.20;2.60;;;8.00;99.90;;;;;;5037986;28;20760;-52
2023/01/12 04:35:02;;;;;;;8.07;3.37;;;7.70;99.90;;;;;;4971105;28;20456;-52
2023/01/12 04:37:31;;;;;;;9.87;3.10;;;8.30;99.90;;;;;;4970687;28;20415;-52
2023/01/12 04:39:58;;;;;;;6.57;2.13;;;8.40;99.90;;;;;;4970696;28;20823;-52
2023/01/12 04:45:10;;;;;;;7.73;2.60;;;8.40;99.90;;;;;;4971207;28;20390;-52
2023/01/12 04:47:36;;;;;;;8.63;2.80;;;8.00;99.90;;;;;;4970837;28;20790;-53
2023/01/12 04:50:04;;;;;;;17.33;3.20;;;8.90;99.90;;;;;;4970462;28;20782;-52
2023/01/12 04:52:31;;;;;;;8.30;2.67;;;8.20;99.90;;;;;;4970806;28;20461;-52
2023/01/12 04:54:58;;;;;;;9.40;2.60;;;8.10;99.90;;;;;;4970789;28;20457;-52
2023/01/12 04:57:25;;;;;;;11.70;3.23;;;8.30;99.90;;;;;;4970751;28;20793;-50
2023/01/12 04:59:51;;;;;;;9.07;3.20;;;8.20;99.90;;;;;;4970219;28;20442;-52
2023/01/12 05:02:18;;;;;;;7.50;3.50;;;8.10;99.90;;;;;;4970712;28;21000;-52
2023/01/12 05:04:46;;;;;;;6.70;2.03;;;8.30;99.90;;;;;;4970775;28;20408;-54
2023/01/12 05:07:13;;;;;;;15.57;2.90;;;8.30;99.90;;;;;;4970942;28;20409;-51
2023/01/12 05:12:21;;;;;;;5.80;2.60;;;8.60;99.90;;;;;;4962018;28;20447;-51
2023/01/12 05:14:49;;;;;;;10.73;4.27;;;8.10;99.90;;;;;;4970444;28;20421;-51
2023/01/12 05:17:15;;;;;;;12.70;2.83;;;8.20;99.90;;;;;;4970448;28;20409;-51
2023/01/12 05:19:42;;;;;;;12.20;2.37;;;8.30;99.90;;;;;;4970205;28;20420;-51
2023/01/12 05:22:08;;;;;;;10.17;2.80;;;8.70;99.90;;;;;;4970344;28;20428;-51
2023/01/12 05:24:35;;;;;;;11.13;2.83;;;8.40;99.90;;;;;;4970665;28;20442;-50
2023/01/12 05:27:03;;;;;;;8.50;2.90;;;7.90;99.90;;;;;;4970403;28;20408;-52
2023/01/12 05:29:29;;;;;;;14.53;3.10;;;7.80;99.90;;;;;;4969640;28;20412;-51
2023/01/12 05:31:56;;;;;;;4.33;2.20;;;8.40;99.90;;;;;;4970022;28;20882;-51
2023/01/12 05:34:23;;;;;;;5.37;2.37;;;8.20;99.90;;;;;;4970087;28;20416;-51
2023/01/12 05:36:49;;;;;;;11.60;1.90;;;8.40;99.90;;;;;;4969798;28;20456;-52
2023/01/12 05:39:16;;;;;;;8.97;3.00;;;8.50;99.90;;;;;;4969874;28;20417;-52
2023/01/12 05:44:25;;;;;;;13.33;3.20;;;8.70;99.90;;;;;;4972882;28;20747;-51
2023/01/12 05:46:51;;;;;;;3.90;2.17;;;8.30;99.90;;;;;;4970126;28;20419;-52
2023/01/12 05:49:18;;;;;;;5.90;2.30;;;8.60;99.90;;;;;;4969842;28;20442;-52
2023/01/12 05:51:45;;;;;;;10.33;2.80;;;8.00;99.90;;;;;;4970150;28;20415;-52
2023/01/12 05:54:11;;;;;;;5.87;2.03;;;8.50;99.90;;;;;;4970081;28;20750;-51
2023/01/12 05:56:38;;;;;;;10.07;2.73;;;7.90;99.90;;;;;;4969723;28;20452;-51
2023/01/12 05:59:05;;;;;;;10.10;2.43;;;8.70;99.90;;;;;;4969706;28;20470;-51
2023/01/12 06:01:33;;;;;;;14.50;3.17;;;8.60;99.90;;;;;;5036762;28;20449;-51
2023/01/12 06:04:01;;;;;;;11.30;2.90;;;8.50;99.90;;;;;;4970466;28;20481;-52
2023/01/12 06:06:30;;;;;;;13.90;2.87;;;8.60;99.90;;;;;;4969815;28;20437;-52
2023/01/12 06:08:57;;;;;;;9.20;2.40;;;8.10;99.90;;;;;;4969479;28;20901;-51
2023/01/12 06:14:09;;;;;;;4.63;3.20;;;8.50;99.90;;;;;;4969754;28;20404;-51
2023/01/12 06:16:39;;;;;;;13.83;4.87;;;8.50;99.90;;;;;;4969474;28;20509;-51
2023/01/12 06:19:06;;;;;;;14.23;4.97;;;8.70;99.90;;;;;;4969152;28;20443;-52
2023/01/12 06:21:34;;;;;;;7.20;4.00;;;8.60;99.90;;;;;;4969494;28;20442;-53
2023/01/12 06:24:00;;;;;;;10.90;3.50;;;8.40;99.90;;;;;;4969164;28;20435;-52
2023/01/12 06:26:27;;;;;;;9.50;2.93;;;8.00;99.90;;;;;;4969360;28;20435;-53
2023/01/12 06:28:54;;;;;;;14.80;5.00;;;8.80;99.90;;;;;;4968847;28;20434;-52
2023/01/12 06:31:20;;;;;;;10.67;4.00;;;8.60;99.90;;;;;;4968729;28;20907;-52
2023/01/12 06:33:48;;;;;;;6.07;2.87;;;9.10;99.90;;;;;;4969378;28;20458;-53
2023/01/12 06:36:15;;;;;;;8.10;2.23;;;8.50;99.90;;;;;;4969194;28;20455;-53
2023/01/12 06:38:42;;;;;;;7.20;2.50;;;8.30;99.90;;;;;;4968715;28;20434;-53
2023/01/12 06:42:27;;;;;;;8.83;3.97;;;8.50;99.90;;;;;;4969813;28;20449;-52
2023/01/12 06:43:58;;;;;;;8.00;2.93;;;8.90;99.90;;;;;;4972203;28;20444;-52
2023/01/12 06:46:26;;;;;;;10.50;2.80;;;8.70;99.90;;;;;;4972785;28;20401;-52
2023/01/12 06:48:56;;;;;;;11.37;3.43;;;8.70;99.90;;;;;;5039316;28;20428;-52
2023/01/12 06:51:23;;;;;;;7.30;3.20;;;8.90;99.90;;;;;;4971908;28;20450;-53
2023/01/12 06:53:50;;;;;;;8.60;3.07;;;8.90;99.90;;;;;;4971925;28;20484;-53
2023/01/12 06:56:17;;;;;;;9.73;4.23;;;8.60;99.90;;;;;;4972169;28;20558;-52
2023/01/12 06:58:44;;;;;;;10.97;3.10;;;8.70;99.90;;;;;;4971888;28;20412;-52
2023/01/12 07:01:12;;;;;;;10.70;3.63;;;8.80;99.90;;;;;;4972345;28;20438;-53
2023/01/12 07:03:38;;;;;;;8.53;2.70;;;8.90;99.90;;;;;;4972085;28;20459;-52
2023/01/12 07:06:07;;;;;;;10.43;4.20;;;8.60;99.90;;;;;;4972241;28;20810;-52
2023/01/12 07:08:33;;;;;;;13.27;3.17;;;8.80;99.90;;;;;;4971973;28;20439;-52
2023/01/12 07:11:02;;;;;;;8.70;2.97;;;8.60;99.90;;;;;;4972146;28;20823;-52
2023/01/12 07:13:29;;;;;;;9.93;2.90;;;8.80;99.90;;;;;;4972144;28;20468;-52
2023/01/12 07:15:58;;;;;;;8.37;2.90;;;8.80;99.90;;;;;;4971778;28;20484;-52
2023/01/12 07:18:24;;;;;;;10.27;3.67;;;8.70;99.90;;;;;;4972129;28;20427;-53
2023/01/12 07:20:51;;;;;;;10.27;3.87;;;9.30;99.90;;;;;;4972073;28;20449;-53
2023/01/12 07:23:19;;;;;;;7.43;2.60;;;8.80;99.90;;;;;;4971856;28;20994;-53
2023/01/12 07:25:46;;;;;;;8.10;3.00;;;8.80;99.90;;;;;;4971991;28;20405;-52
2023/01/12 07:28:12;;;;;;;11.07;2.63;;;8.90;99.90;;;;;;4971549;28;20416;-53
2023/01/12 07:30:39;;;;;;;9.53;2.27;;;8.40;99.90;;;;;;4971930;28;20409;-53
2023/01/12 07:33:07;;;;;;;6.17;2.37;;;9.10;99.90;;;;;;4971392;28;20433;-52
2023/01/12 07:35:33;;;;;;;7.20;2.80;;;8.80;99.90;;;;;;5038554;28;20787;-52
2023/01/12 07:38:00;;;;;;;7.93;3.00;;;8.80;99.90;;;;;;4971989;28;20434;-52
2023/01/12 07:40:28;;;;;;;13.90;4.00;;;9.50;99.90;;;;;;4972121;28;20447;-53
2023/01/12 07:42:59;;;;;;;7.33;2.67;;;8.90;99.90;;;;;;5038057;28;20474;-53
2023/01/12 07:45:25;;;;;;;8.50;3.40;;;8.80;99.90;;;;;;4971694;28;20417;-52
2023/01/12 07:47:52;;;;;;;8.47;2.70;;;9.00;99.90;;;;;;4971969;28;20413;-51
2023/01/12 07:50:19;;;;;;;9.50;3.03;;;8.80;99.90;;;;;;4971302;28;20415;-53
2023/01/12 07:52:46;;;;;;;6.97;2.67;;;9.10;99.90;;;;;;4971086;28;20485;-52
2023/01/12 07:55:12;;;;;;;8.47;3.23;;;9.50;99.90;;;;;;4971194;28;20515;-50
2023/01/12 07:57:40;;;;;;;8.30;3.43;;;8.90;99.90;;;;;;4971284;28;20978;-53
2023/01/12 08:00:08;;;;;;;10.03;2.73;;;9.20;99.90;;;;;;4971241;28;20441;-53
2023/01/12 08:02:35;;;;;;;9.97;2.80;;;8.90;99.90;;;;;;4971432;28;20456;-53
2023/01/12 08:05:02;;;;;;;6.57;3.10;;;9.00;99.90;;;;;;4971299;28;20413;-53
2023/01/12 08:07:31;;;;;;;6.83;2.77;;;9.10;99.90;;;;;;4971141;28;20409;-53
2023/01/12 08:09:58;;;;;;;8.50;2.80;;;9.00;99.90;;;;;;4970831;28;20459;-54
2023/01/12 08:12:24;;;;;;;11.40;2.70;;;9.20;99.90;;;;;;4970959;28;20429;-53
2023/01/12 08:14:52;;;;;;;7.17;2.70;;;9.30;99.90;;;;;;4971178;28;20438;-53
2023/01/12 08:17:22;;;;;;;7.97;3.00;;;9.70;99.90;;;;;;4970870;28;20453;-53
2023/01/12 08:19:53;;;;;;;9.27;3.50;;;9.80;99.90;;;;;;4971142;28;20417;-54
2023/01/12 08:22:22;;;;;;;7.70;2.87;;;9.20;99.90;;;;;;4971242;28;20524;-51
2023/01/12 08:24:54;;;;;;;14.67;5.30;;;9.10;99.90;;;;;;4970454;28;20941;-52
2023/01/12 08:27:24;;;;;;;7.43;3.30;;;9.40;99.90;;;;;;4970526;28;20440;-52
2023/01/12 08:29:57;;;;;;;10.07;3.10;;;9.30;99.90;;;;;;4970425;28;20417;-51
2023/01/12 08:32:25;;;;;;;6.80;2.60;;;9.90;99.90;;;;;;4970490;28;20429;-51
2023/01/12 08:34:56;;;;;;;5.30;2.17;;;9.90;99.90;;;;;;4970574;28;20446;-51
2023/01/12 08:37:24;;;;;;;5.00;2.60;;;9.30;99.90;;;;;;4970998;28;20453;-55
2023/01/12 08:39:51;;;;;;;7.45;3.47;;;9.40;99.90;;;;;;4968696;28;20537;-53
2023/01/12 08:42:18;;;;;;;6.17;2.83;;;9.60;99.90;;;;;;4970821;28;20268;-52
2023/01/12 08:44:45;;;;;;;9.40;3.13;;;9.70;99.90;;;;;;4970634;28;20417;-52
2023/01/12 08:47:19;;;;;;;12.40;4.20;;;9.30;99.90;;;;;;4970942;28;20405;-52
2023/01/12 08:49:46;;;;;;;5.40;2.37;;;10.00;99.90;;;;;;4970458;28;20441;-52
2023/01/12 08:52:14;;;;;;;7.53;2.80;;;9.80;99.90;;;;;;4970157;28;20424;-52
2023/01/12 08:54:41;;;;;;;10.20;2.63;;;9.50;99.90;;;;;;4970473;28;20422;-52
2023/01/12 08:57:08;;;;;;;6.80;3.20;;;9.60;99.90;;;;;;5036864;28;20472;-52
2023/01/12 08:59:34;;;;;;;10.00;2.70;;;9.80;99.90;;;;;;4970302;28;20439;-53
2023/01/12 09:02:01;;;;;;;6.07;2.80;;;9.90;99.90;;;;;;4970247;28;20418;-53
2023/01/12 09:04:29;;;;;;;15.23;3.17;;;9.80;99.90;;;;;;4969807;28;20486;-52
2023/01/12 09:06:56;;;;;;;5.83;2.37;;;9.80;99.90;;;;;;4970481;28;20416;-52
2023/01/12 09:09:22;;;;;;;4.30;2.37;;;9.80;99.90;;;;;;4970259;28;20696;-52
2023/01/12 09:11:50;;;;;;;8.40;3.10;;;10.20;99.90;;;;;;4970369;28;20442;-53
2023/01/12 09:14:17;;;;;;;6.73;2.60;;;10.10;99.90;;;;;;4970431;28;20417;-53
2023/01/12 09:16:44;;;;;;;8.10;2.57;;;9.80;99.90;;;;;;4970053;28;20482;-53
2023/01/12 09:19:11;;;;;;;10.00;2.90;;;9.90;99.90;;;;;;4969038;28;20520;-52
2023/01/12 09:21:40;;;;;;;13.43;3.80;;;10.10;99.90;;;;;;4970436;28;20950;-53
2023/01/12 09:24:07;;;;;;;7.00;2.80;;;10.10;99.90;;;;;;4969594;28;20420;-53
2023/01/12 09:26:38;;;;;;;7.17;2.83;;;10.70;99.90;;;;;;4970384;28;20679;-51
2023/01/12 09:29:06;;;;;;;8.33;2.87;;;10.40;99.90;;;;;;4970304;28;20442;-51
2023/01/12 09:31:35;;;;;;;7.80;3.10;;;10.60;99.90;;;;;;4970181;28;20521;-52
2023/01/12 09:34:02;;;;;;;7.47;2.90;;;10.60;99.90;;;;;;4970016;28;20512;-52
2023/01/12 09:36:30;;;;;;;7.35;2.90;;;10.10;99.90;;;;;;5036035;28;20459;-52
2023/01/12 09:39:00;;;;;;;7.40;2.23;;;9.70;99.90;;;;;;4969748;28;20219;-53
2023/01/12 09:47:03;;;;;;;7.20;2.10;;;10.20;99.90;;;;;;4969889;28;20493;-52
2023/01/12 09:49:35;;;;;;;5.20;1.90;;;10.20;99.90;;;;;;4969609;28;20214;-52
2023/01/12 09:52:13;;;;;;;5.67;1.90;;;10.00;99.90;;;;;;5036133;28;20537;-52
2023/01/12 09:54:41;;;;;;;5.10;2.87;;;10.20;99.90;;;;;;4970007;28;20430;-52
2023/01/12 09:57:29;;;;;;;9.80;2.30;;;10.20;99.90;;;;;;4969548;28;20456;-53
2023/01/12 10:00:00;;;;;;;7.93;2.00;;;10.20;99.90;;;;;;4969502;28;20435;-52
2023/01/12 10:02:27;;;;;;;6.00;1.80;;;10.30;99.90;;;;;;4969656;28;20459;-53
2023/01/12 10:04:56;;;;;;;10.10;3.43;;;10.00;99.90;;;;;;4969952;28;20414;-52
2023/01/12 10:07:23;;;;;;;8.00;3.60;;;10.20;99.90;;;;;;4969762;28;20687;-53
2023/01/12 10:09:51;;;;;;;10.90;3.10;;;10.40;99.90;;;;;;4969213;28;20760;-52
2023/01/12 10:12:25;;;;;;;11.23;2.83;;;10.40;99.90;;;;;;4969285;28;20441;-53
2023/01/12 10:15:17;;;;;;;7.10;2.30;;;10.40;99.90;;;;;;4969327;28;20454;-52
2023/01/12 10:17:49;;;;;;;8.47;2.93;;;10.70;99.90;;;;;;4972652;28;20467;-53
2023/01/12 10:20:22;;;;;;;7.33;2.60;;;10.40;99.90;;;;;;4973048;28;20518;-52
2023/01/12 10:22:52;;;;;;;10.50;2.87;;;10.50;99.90;;;;;;4973113;28;21035;-52
2023/01/12 10:25:35;;;;;;;7.87;2.60;;;11.00;99.90;;;;;;4972596;28;20537;-53
2023/01/12 10:28:07;;;;;;;9.93;2.27;;;10.80;99.90;;;;;;4972595;28;20938;-52
2023/01/12 10:30:35;;;;;;;4.97;2.43;;;10.60;99.90;;;;;;4972721;28;20774;-52
2023/01/12 10:33:10;;;;;;;9.23;2.30;;;10.80;99.90;;;;;;4972401;28;20456;-52
2023/01/12 10:35:51;;;;;;;12.00;3.17;;;10.70;99.90;;;;;;4972447;28;20503;-52
2023/01/12 10:38:28;;;;;;;8.33;2.37;;;10.70;99.90;;;;;;4971914;28;20463;-52
2023/01/12 10:41:15;;;;;;;8.37;3.33;;;10.90;99.90;;;;;;4972374;28;20414;-52
2023/01/12 10:43:43;;;;;;;7.90;2.00;;;10.80;99.90;;;;;;4972350;28;20529;-53
2023/01/12 10:46:13;;;;;;;10.93;2.60;;;10.80;99.90;;;;;;4972557;28;20939;-53
2023/01/12 10:48:42;;;;;;;15.17;2.33;;;10.80;99.90;;;;;;4972175;28;20420;-53
2023/01/12 10:51:21;;;;;;;7.63;2.87;;;10.70;99.90;;;;;;4972287;28;20418;-53
2023/01/12 10:53:51;;;;;;;7.00;2.17;;;10.50;99.90;;;;;;4972430;28;21040;-53
2023/01/12 10:56:28;;;;;;;8.77;2.80;;;10.90;99.90;;;;;;4972396;28;20432;-53
2023/01/12 10:58:59;;;;;;;7.27;2.40;;;11.40;99.90;;;;;;4971942;28;20431;-53
2023/01/12 11:01:25;;;;;;;8.53;3.40;;;10.70;99.90;;;;;;5039004;28;20468;-52
2023/01/12 11:04:04;;;;;;;16.07;2.70;;;10.70;99.90;;;;;;4972137;28;20467;-54
2023/01/12 11:06:31;;;;;;;8.18;2.30;;;10.20;99.90;;;;;;4972230;28;20417;-52
2023/01/12 11:09:13;;;;;;;8.77;2.47;;;11.00;99.90;;;;;;4971729;28;20738;-53
2023/01/12 11:11:41;;;;;;;7.57;2.23;;;11.20;99.90;;;;;;4972121;28;20779;-54
2023/01/12 11:14:23;;;;;;;8.15;2.92;;;10.70;99.90;;;;;;4971805;28;20426;-53
2023/01/12 11:16:50;;;;;;;4.40;1.83;;;11.20;99.90;;;;;;4971130;28;20454;-53
2023/01/12 11:19:18;;;;;;;10.30;2.70;;;11.30;99.90;;;;;;4971513;28;20201;-53
2023/01/12 11:21:50;;;;;;;5.23;2.23;;;10.90;99.90;;;;;;4971572;28;20422;-52
2023/01/12 11:24:28;;;;;;;6.47;1.70;;;10.80;99.90;;;;;;4972093;28;20426;-53
2023/01/12 11:26:59;;;;;;;9.40;2.95;;;10.20;99.90;;;;;;4970407;28;20441;-52
2023/01/12 11:29:34;;;;;;;5.80;1.70;;;11.00;99.90;;;;;;4971812;28;20196;-53
2023/01/12 11:32:06;;;;;;;7.53;3.47;;;10.80;99.90;;;;;;4971740;28;20801;-53
2023/01/12 11:34:37;;;;;;;7.70;2.60;;;10.90;99.90;;;;;;4971878;28;20406;-53
2023/01/12 11:37:10;;;;;;;8.80;3.10;;;10.70;99.90;;;;;;4972017;28;20499;-52
2023/01/12 11:39:38;;;;;;;8.80;2.30;;;11.10;99.90;;;;;;4970891;28;20448;-53
2023/01/12 11:45:01;;;;;;;10.30;2.27;;;10.40;99.90;;;;;;4971732;28;20416;-53
2023/01/12 11:47:31;;;;;;;6.53;2.50;;;10.40;99.90;;;;;;4971988;28;20418;-53
2023/01/12 11:50:05;;;;;;;4.73;2.53;;;10.80;99.90;;;;;;4971576;28;20432;-53
2023/01/12 11:52:32;;;;;;;9.60;2.63;;;10.60;99.90;;;;;;4971533;28;20459;-52
2023/01/12 11:55:00;;;;;;;11.17;2.10;;;10.70;99.90;;;;;;4971630;28;20415;-53
2023/01/12 11:57:49;;;;;;;10.27;2.50;;;10.60;99.90;;;;;;4971325;28;20454;-53
2023/01/12 12:00:28;;;;;;;4.03;1.90;;;10.70;99.90;;;;;;4971269;28;20518;-52
2023/01/12 12:03:09;;;;;;;8.57;2.03;;;10.70;99.90;;;;;;4972179;28;20478;-52
2023/01/12 12:05:43;;;;;;;8.40;2.47;;;10.50;99.90;;;;;;4971292;28;20409;-52
2023/01/12 12:08:24;;;;;;;6.87;2.33;;;10.80;99.90;;;;;;5037689;28;20863;-52
2023/01/12 12:10:57;;;;;;;5.00;2.57;;;11.10;99.90;;;;;;4971168;28;20432;-52
2023/01/12 12:13:33;;;;;;;4.03;2.07;;;11.20;99.90;;;;;;4971107;28;20926;-52
2023/01/12 12:16:21;;;;;;;7.27;1.90;;;10.10;99.90;;;;;;4971190;28;20421;-52
2023/01/12 12:18:59;;;;;;;5.83;2.30;;;10.50;99.90;;;;;;4971434;28;20468;-52
2023/01/12 12:21:41;;;;;;;5.30;2.10;;;10.60;99.90;;;;;;4971137;28;20429;-52
2023/01/12 12:24:17;;;;;;;4.20;1.90;;;10.80;99.90;;;;;;4970880;28;20415;-52
2023/01/12 12:26:50;;;;;;;5.50;2.20;;;10.70;99.90;;;;;;4971067;28;20721;-52
2023/01/12 12:29:33;;;;;;;4.77;2.50;;;10.70;99.90;;;;;;4971094;28;20919;-52
2023/01/12 12:32:24;;;;;;;7.90;3.70;;;11.10;99.90;;;;;;4971021;28;20451;-52
2023/01/12 12:35:14;;;;;;;6.97;3.00;;;10.90;99.90;;;;;;4970791;28;20897;-52
2023/01/12 12:37:50;;;;;;;5.90;1.50;;;10.80;99.90;;;;;;4970791;28;20472;-52
2023/01/12 12:46:20;;;;;;;4.77;1.70;;;10.80;99.90;;;;;;4970495;28;20503;-52
2023/01/12 12:48:57;;;;;;;4.30;1.60;;;10.90;99.90;;;;;;5037506;28;20450;-52
2023/01/12 12:51:24;;;;;;;3.80;1.83;;;10.70;99.90;;;;;;4970788;28;20415;-52
2023/01/12 12:53:53;;;;;;;2.58;1.50;;;11.10;99.90;;;;;;4970480;28;20425;-52
2023/01/12 12:56:22;;;;;;;4.80;1.60;;;10.90;99.90;;;;;;4970767;28;20212;-52
2023/01/12 12:58:50;;;;;;;3.70;1.70;;;10.90;99.90;;;;;;4970192;28;20484;-52
2023/01/12 13:01:58;;;;;;;4.23;2.17;;;11.00;99.90;;;;;;4970282;28;20414;-52
2023/01/12 13:05:01;;;;;;;4.50;1.50;;;11.10;99.90;;;;;;4969920;28;20431;-52
2023/01/12 13:07:28;;;;;;;2.97;1.30;;;11.00;99.90;;;;;;4970565;28;20431;-52
2023/01/12 13:10:10;;;;;;;5.23;1.83;;;11.10;99.90;;;;;;4970062;28;20422;-52
2023/01/12 13:12:36;;;;;;;8.55;2.60;;;11.20;99.90;;;;;;4969721;28;20416;-52
2023/01/12 13:15:19;;;;;;;6.30;2.53;;;10.90;99.90;;;;;;4970484;28;20226;-52
2023/01/12 13:17:49;;;;;;;8.10;3.20;;;11.10;99.90;;;;;;4969606;28;20446;-52
2023/01/12 13:20:37;;;;;;;1.70;1.07;;;11.40;99.90;;;;;;5036546;28;20208;-53
2023/01/12 13:23:19;;;;;;;5.17;1.73;;;11.40;99.90;;;;;;4970241;28;20431;-51
2023/01/12 13:25:57;;;;;;;9.80;4.33;;;11.20;99.90;;;;;;4972813;28;20418;-51
2023/01/12 13:28:23;;;;;;;9.37;3.97;;;11.60;99.90;;;;;;4969548;28;20406;-52
2023/01/12 13:30:52;;;;;;;11.13;6.10;;;11.00;99.90;;;;;;4970003;28;20412;-53
2023/01/12 13:33:26;;;;;;;6.30;3.73;;;11.10;99.90;;;;;;4969928;28;20513;-53
2023/01/12 13:36:07;;;;;;;5.07;3.03;;;11.20;99.90;;;;;;4970084;28;20444;-51
2023/01/12 13:39:03;;;;;;;6.47;2.80;;;11.20;99.90;;;;;;4970130;28;20452;-51
2023/01/12 13:44:24;;;;;;;9.07;6.37;;;11.10;99.90;;;;;;4969973;28;20418;-51
2023/01/12 13:46:57;;;;;;;10.20;7.87;;;11.50;99.90;;;;;;4969714;28;21017;-53
2023/01/12 13:49:29;;;;;;;10.97;8.20;;;11.00;99.90;;;;;;4969203;28;20469;-52
2023/01/12 13:51:58;;;;;;;15.40;10.07;;;11.10;99.90;;;;;;4973383;28;20433;-52